Latest Weather Observations for Creal Reef

IDQ60801

Issued at 9:02 pm EST Monday 2 March 2015 (issued every 30 minutes, with the page automatically refreshed every 10 minutes)

About weather observations | Map of weather stations | Latest weather observations for QLD | Other Formats
Station Details ID: 200736 Name: CREAL REEF Lat: -20.53 Lon: 150.38 Height: 1.7 m
Data from the previous 72 hours. | See also: Recent months for locations in Queensland
Date/Time
EST
Temp
°C
App
Temp
°C
Dew
Point
Rel
Hum
%
Delta-T
°C
Wind Press
QNH
hPa
Press
MSL
hPa
Rain
since 9 am
mm
Dir
 
Spd
km/h
Gust
km/h
Spd
kts
Gust
kts
02/09:00pm 26.9 - - - - SE 33 39 18 21 1010.4 - -
02/08:30pm 26.9 - - - - SE 33 39 18 21 1010.0 - -
02/08:20pm 27.1 - - - - SE 33 - 18 - - 1009.8 -
02/08:00pm 26.9 - - - - ESE 30 35 16 19 1009.6 - -
02/07:30pm 26.9 - - - - ESE 33 37 18 20 1008.9 - -
02/07:20pm 26.9 - - - - SE 32 - 17 - - 1008.9 -
02/07:00pm 27.0 - - - - SE 32 37 17 20 1008.6 - -
02/06:30pm 27.0 - - - - SE 32 35 17 19 1008.5 - -
02/06:20pm 27.0 - - - - SE 32 - 17 - - 1008.4 -
02/06:00pm 26.7 - - - - SSE 24 28 13 15 1008.4 - -
02/05:30pm 27.1 - - - - SE 30 33 16 18 1008.1 - -
02/05:20pm 27.1 - - - - SE 30 - 16 - - 1008.1 -
02/05:00pm 27.2 - - - - SE 28 32 15 17 1007.9 - -
02/04:30pm 27.3 - - - - SSE 28 33 15 18 1007.7 - -
02/04:20pm 27.2 - - - - SE 28 - 15 - - 1007.7 -
02/04:00pm 27.2 - - - - SSE 28 32 15 17 1007.6 - -
02/03:30pm 27.1 - - - - SSE 30 35 16 19 1007.6 - -
02/03:20pm 27.2 - - - - SSE 28 - 15 - - 1007.6 -
02/03:00pm 27.2 - - - - SSE 30 33 16 18 1007.7 - -
02/02:30pm 27.1 - - - - SSE 30 35 16 19 1007.8 - -
02/02:20pm 27.0 - - - - SSE 28 - 15 - - 1007.8 -
02/02:00pm 27.1 - - - - SSE 28 32 15 17 1008.0 - -
02/01:30pm 27.1 - - - - SSE 22 28 12 15 1008.5 - -
02/01:20pm 27.0 - - - - SSE 22 - 12 - - 1008.6 -
02/01:00pm 27.1 - - - - SSE 20 26 11 14 1008.9 - -
02/12:30pm 27.0 - - - - SSE 20 26 11 14 1009.3 - -
02/12:20pm 26.8 - - - - SSE 22 - 12 - - 1009.4 -
02/12:00pm 26.8 - - - - SSE 20 24 11 13 1009.3 - -
02/11:30am 26.8 - - - - SSE 19 24 10 13 1009.7 - -
02/11:20am 26.9 - - - - SSE 20 - 11 - - 1009.8 -
02/11:00am 26.7 - - - - SSE 20 26 11 14 1010.0 - -
02/10:30am 26.6 - - - - SSE 19 24 10 13 1010.0 - -
02/10:20am 26.8 - - - - SE 19 - 10 - - 1009.9 -
02/10:00am 26.6 - - - - SSE 17 20 9 11 1010.1 - -
02/09:30am 27.0 - - - - ESE 13 17 7 9 1010.1 - -
02/09:20am 26.7 - - - - ESE 15 - 8 - - 1010.0 -
02/09:00am 27.0 - - - - SE 13 17 7 9 1010.1 - -
02/08:30am 27.0 - - - - ESE 11 15 6 8 1009.9 - -
02/08:20am 26.8 - - - - SE 13 - 7 - - 1009.7 -
02/08:00am 26.9 - - - - SE 11 13 6 7 1009.6 - -
02/07:30am 27.0 - - - - SE 7 11 4 6 1009.1 - -
02/07:20am 27.0 - - - - SE 7 - 4 - - 1008.9 -
02/07:00am 26.7 - - - - SE 9 13 5 7 1008.8 - -
02/06:30am 26.6 - - - - ESE 11 13 6 7 1008.5 - -
02/06:20am 26.3 - - - - SE 11 - 6 - - 1008.3 -
02/06:00am 26.0 - - - - SE 11 13 6 7 1008.0 - -
02/05:30am 26.1 - - - - SE 7 9 4 5 1007.9 - -
02/05:20am 26.1 - - - - ESE 9 - 5 - - 1007.9 -
02/05:00am 26.2 - - - - ESE 9 13 5 7 1007.7 - -
02/04:30am 26.2 - - - - E 7 9 4 5 1007.5 - -
02/04:20am 26.2 - - - - ESE 9 - 5 - - 1007.5 -
02/04:00am 26.2 - - - - ESE 7 9 4 5 1007.5 - -
02/03:30am 26.1 - - - - E 7 9 4 5 1007.4 - -
02/03:20am 26.2 - - - - E 9 - 5 - - 1007.6 -
02/03:00am 26.2 - - - - E 9 13 5 7 1007.7 - -
02/02:30am 26.3 - - - - ESE 11 15 6 8 1007.6 - -
02/02:20am 26.3 - - - - ESE 9 - 5 - - 1007.8 -
02/02:00am 26.4 - - - - E 9 13 5 7 1008.1 - -
02/01:30am 26.3 - - - - E 11 15 6 8 1008.3 - -
02/01:20am 26.4 - - - - E 11 - 6 - - 1008.5 -
02/01:00am 26.4 - - - - E 13 15 7 8 1008.8 - -
02/12:30am 26.4 - - - - E 11 13 6 7 1009.1 - -
02/12:20am 26.3 - - - - E 13 - 7 - - 1009.2 -
02/12:00am 26.3 - - - - E 17 19 9 10 1009.1 - -
 
Date/Time
EST
Temp
°C
App
Temp
°C
Dew
Point
Rel
Hum
%
Delta-T
°C
Wind Press
QNH
hPa
Press
MSL
hPa
Rain
since 9 am
mm
Dir
 
Spd
km/h
Gust
km/h
Spd
kts
Gust
kts
01/11:30pm 26.4 - - - - E 17 19 9 10 1009.3 - -
01/11:20pm 26.4 - - - - E 17 - 9 - - 1009.4 -
01/11:00pm 26.5 - - - - E 17 20 9 11 1009.5 - -
01/10:30pm 26.4 - - - - E 19 20 10 11 1009.6 - -
01/10:20pm 26.4 - - - - E 19 - 10 - - 1009.5 -
01/10:00pm 26.6 - - - - E 17 20 9 11 1009.7 - -
01/09:30pm 26.7 - - - - E 19 22 10 12 1009.3 - -
01/09:20pm 26.6 - - - - E 19 - 10 - - 1009.3 -
01/09:00pm 26.8 - - - - E 19 22 10 12 1009.3 - -
01/08:30pm 26.8 - - - - E 17 20 9 11 1009.0 - -
01/08:20pm 26.8 - - - - E 17 - 9 - - 1008.9 -
01/08:00pm 26.7 - - - - E 17 20 9 11 1008.6 - -
01/07:30pm 26.6 - - - - ESE 19 20 10 11 1008.3 - -
01/07:20pm 26.6 - - - - SE 19 - 10 - - 1008.3 -
01/07:00pm 26.8 - - - - SE 19 22 10 12 1007.9 - -
01/06:30pm 26.9 - - - - SE 19 20 10 11 1007.5 - -
01/06:20pm 26.7 - - - - SE 17 - 9 - - 1007.3 -
01/06:00pm 26.9 - - - - SE 15 19 8 10 1007.4 - -
01/05:30pm 26.9 - - - - SE 15 17 8 9 1007.4 - -
01/05:20pm 26.8 - - - - SE 15 - 8 - - 1007.4 -
01/05:00pm 26.8 - - - - SE 15 20 8 11 1007.3 - -
01/04:30pm 27.0 - - - - SE 17 20 9 11 1007.3 - -
01/04:20pm 27.0 - - - - SE 17 - 9 - - 1007.4 -
01/04:00pm 27.2 - - - - SE 15 20 8 11 1007.1 - -
01/03:30pm 27.2 - - - - SE 15 19 8 10 1007.2 - -
01/03:20pm 27.0 - - - - SE 15 - 8 - - 1007.2 -
01/03:00pm 27.3 - - - - SE 17 19 9 10 1007.2 - -
01/02:30pm 27.3 - - - - SE 15 19 8 10 1007.3 - -
01/02:20pm 27.5 - - - - SE 15 - 8 - - 1007.4 -
01/02:00pm 27.2 - - - - SE 15 19 8 10 1007.5 - -
01/01:30pm 27.3 - - - - SE 13 17 7 9 1007.8 - -
01/01:20pm 27.0 - - - - SE 13 - 7 - - 1007.8 -
01/01:00pm 27.1 - - - - SE 13 17 7 9 1008.1 - -
01/12:30pm 26.9 - - - - SE 13 15 7 8 1008.4 - -
01/12:20pm 26.9 - - - - SE 13 - 7 - - 1008.5 -
01/12:00pm 26.9 - - - - SE 11 15 6 8 1008.8 - -
01/11:30am 26.9 - - - - SE 13 17 7 9 1009.3 - -
01/11:20am 26.9 - - - - SE 11 - 6 - - 1009.2 -
01/11:00am 27.2 - - - - SE 11 15 6 8 1009.3 - -
01/10:30am 27.0 - - - - SE 11 15 6 8 1009.7 - -
01/10:20am 27.0 - - - - SE 11 - 6 - - 1009.6 -
01/10:00am 26.9 - - - - SE 11 15 6 8 1009.8 - -
01/09:30am 27.2 - - - - SE 9 13 5 7 1009.8 - -
01/09:20am 27.0 - - - - SE 9 - 5 - - 1009.5 -
01/09:00am 27.0 - - - - SE 11 13 6 7 1009.5 - -
01/08:30am 26.9 - - - - SE 11 13 6 7 1009.3 - -
01/08:20am 26.9 - - - - SE 11 - 6 - - 1009.2 -
01/08:00am 26.8 - - - - ESE 11 15 6 8 1008.9 - -
01/07:30am 26.4 - - - - ESE 6 9 3 5 1008.6 - -
01/07:20am 26.3 - - - - ESE 7 - 4 - - 1008.4 -
01/07:00am 26.3 - - - - ESE 9 11 5 6 1008.1 - -
01/06:30am 26.3 - - - - ESE 9 13 5 7 1007.6 - -
01/06:20am 26.3 - - - - ESE 11 - 6 - - 1007.6 -
01/06:00am 26.2 - - - - ESE 11 17 6 9 1007.6 - -
01/05:30am 26.2 - - - - ESE 13 17 7 9 1007.3 - -
01/05:20am 26.3 - - - - ESE 15 - 8 - - 1007.3 -
01/05:00am 26.2 - - - - ESE 15 17 8 9 1007.1 - -
01/04:30am 26.2 - - - - ESE 11 13 6 7 1007.2 - -
01/04:20am 26.3 - - - - ESE 11 - 6 - - 1007.3 -
01/04:00am 26.3 - - - - ESE 11 15 6 8 1007.4 - -
01/03:30am 26.3 - - - - ESE 13 15 7 8 1007.4 - -
01/03:20am 26.3 - - - - ESE 13 - 7 - - 1007.4 -
01/03:00am 26.3 - - - - ESE 11 13 6 7 1007.4 - -
01/02:30am 26.3 - - - - ESE 13 17 7 9 1007.4 - -
01/02:20am 26.3 - - - - ESE 13 - 7 - - 1007.4 -
01/02:00am 26.3 - - - - ESE 15 20 8 11 1007.6 - -
01/01:30am 26.5 - - - - ESE 17 19 9 10 1007.9 - -
01/01:20am 26.4 - - - - ESE 15 - 8 - - 1008.1 -
01/01:00am 26.5 - - - - ESE 17 20 9 11 1008.4 - -
01/12:30am 26.6 - - - - E 17 19 9 10 1008.8 - -
01/12:20am 26.6 - - - - E 17 - 9 - - 1009.0 -
01/12:00am 26.6 - - - - E 19 20 10 11 1009.1 - -
 
Date/Time
EST
Temp
°C
App
Temp
°C
Dew
Point
Rel
Hum
%
Delta-T
°C
Wind Press
QNH
hPa
Press
MSL
hPa
Rain
since 9 am
mm
Dir
 
Spd
km/h
Gust
km/h
Spd
kts
Gust
kts
28/11:30pm 26.7 - - - - E 19 20 10 11 1009.3 - -
28/11:20pm 26.7 - - - - ESE 19 - 10 - - 1009.2 -
28/11:00pm 26.8 - - - - ESE 20 24 11 13 1009.1 - -
28/10:30pm 26.9 - - - - ESE 22 28 12 15 1009.1 - -
28/10:20pm 26.8 - - - - ESE 24 - 13 - - 1009.2 -
28/10:00pm 26.9 - - - - ESE 24 28 13 15 1009.1 - -
28/09:30pm 27.1 - - - - ESE 24 28 13 15 1009.1 - -
28/09:20pm 26.9 - - - - ESE 24 - 13 - - 1009.0 -
28/09:00pm 27.0 - - - - ESE 22 26 12 14 1008.9 - -
28/08:30pm 27.0 - - - - ESE 22 26 12 14 1008.8 - -
28/08:20pm 26.9 - - - - ESE 20 - 11 - - 1008.8 -
28/08:00pm 26.9 - - - - ESE 20 24 11 13 1008.7 - -
28/07:30pm 26.9 - - - - ESE 20 24 11 13 1008.3 - -
28/07:20pm 26.9 - - - - ESE 22 - 12 - - 1008.1 -
28/07:00pm 27.1 - - - - SE 20 24 11 13 1007.8 - -
28/06:30pm 27.2 - - - - SE 20 24 11 13 1007.5 - -
28/06:20pm 27.0 - - - - ESE 20 - 11 - - 1007.5 -
28/06:00pm 27.2 - - - - ESE 19 22 10 12 1007.4 - -
28/05:30pm 27.2 - - - - ESE 20 24 11 13 1007.1 - -
28/05:20pm 27.2 - - - - ESE 19 - 10 - - 1007.0 -
28/05:00pm 27.1 - - - - ESE 19 22 10 12 1007.0 - -
28/04:30pm 27.2 - - - - SE 20 24 11 13 1006.8 - -
28/04:20pm 27.0 - - - - SE 22 - 12 - - 1006.7 -
28/04:00pm 27.2 - - - - SE 20 24 11 13 1006.7 - -
28/03:30pm 27.2 - - - - SE 20 26 11 14 1006.7 - -
28/03:20pm 27.0 - - - - SE 19 - 10 - - 1006.7 -
28/03:00pm 27.2 - - - - SSE 19 22 10 12 1006.8 - -
28/02:30pm 27.1 - - - - SSE 19 22 10 12 1007.1 - -
28/02:20pm 27.1 - - - - SSE 19 - 10 - - 1007.2 -
28/02:00pm 27.3 - - - - SSE 17 20 9 11 1007.5 - -
28/01:30pm 27.5 - - - - SSE 19 22 10 12 1007.8 - -
28/01:20pm 27.3 - - - - SSE 17 - 9 - - 1007.9 -
28/01:00pm 27.2 - - - - SSE 17 20 9 11 1008.1 - -
28/12:30pm 27.3 - - - - S 15 20 8 11 1008.4 - -
28/12:20pm 27.3 - - - - SSE 17 - 9 - - 1008.5 -
28/12:00pm 27.3 - - - - S 17 19 9 10 1008.7 - -
28/11:30am 27.1 - - - - S 15 19 8 10 1008.7 - -
28/11:20am 26.9 - - - - S 17 - 9 - - 1008.8 -
28/11:00am 26.7 - - - - S 17 20 9 11 1008.8 - -
28/10:30am 26.8 - - - - S 15 20 8 11 1008.9 - -
28/10:20am 26.8 - - - - S 15 - 8 - - 1008.9 -
28/10:00am 26.6 - - - - S 17 20 9 11 1008.9 - -
28/09:30am 26.5 - - - - S 13 17 7 9 1008.9 - -
28/09:20am 26.6 - - - - S 13 - 7 - - 1008.8 -
28/09:00am 26.7 - - - - S 11 15 6 8 1008.8 - -
28/08:30am 26.6 - - - - S 13 15 7 8 1008.7 - -
28/08:20am 26.6 - - - - S 13 - 7 - - 1008.4 -
28/08:00am 26.6 - - - - S 9 13 5 7 1008.2 - -
28/07:30am 26.8 - - - - E 9 13 5 7 1008.0 - -
28/07:20am 26.9 - - - - E 9 - 5 - - 1008.0 -
28/07:00am 26.7 - - - - E 7 11 4 6 1007.7 - -
28/06:30am 26.4 - - - - ENE 4 7 2 4 1007.3 - -
28/06:20am 26.3 - - - - ENE 2 - 1 - - 1007.2 -
28/06:00am 25.7 - - - - CALM 0 0 0 0 1007.0 - -
28/05:30am 25.8 - - - - ESE 2 6 1 3 1007.1 - -
28/05:20am 25.8 - - - - CALM 0 - 0 - - 1006.9 -
28/05:00am 25.8 - - - - CALM 0 0 0 0 1007.0 - -
28/04:30am 25.8 - - - - CALM 0 0 0 0 1007.1 - -
28/04:20am 25.8 - - - - CALM 0 - 0 - - 1007.0 -
28/04:00am 25.9 - - - - ESE 2 6 1 3 1007.1 - -
28/03:30am 26.0 - - - - ESE 4 7 2 4 1007.0 - -
28/03:20am 25.8 - - - - CALM 0 - 0 - - 1006.9 -
28/03:00am 26.0 - - - - E 2 6 1 3 1006.9 - -
28/02:30am 26.1 - - - - E 11 13 6 7 1007.0 - -
28/02:20am 26.1 - - - - E 11 - 6 - - 1007.2 -
28/02:00am 26.1 - - - - E 11 15 6 8 1007.4 - -
28/01:30am 26.2 - - - - E 15 17 8 9 1007.5 - -
28/01:20am 26.3 - - - - E 15 - 8 - - 1007.6 -
28/01:00am 26.4 - - - - E 17 19 9 10 1007.7 - -
28/12:30am 26.6 - - - - E 15 17 8 9 1007.9 - -
28/12:20am 26.5 - - - - E 17 - 9 - - 1007.9 -
28/12:00am 26.7 - - - - E 15 19 8 10 1008.2 - -
 
Date/Time
EST
Temp
°C
App
Temp
°C
Dew
Point
Rel
Hum
%
Delta-T
°C
Wind Press
QNH
hPa
Press
MSL
hPa
Rain
since 9 am
mm
Dir
 
Spd
km/h
Gust
km/h
Spd
kts
Gust
kts
27/11:30pm 26.7 - - - - ENE 13 17 7 9 1008.6 - -
27/11:20pm 26.7 - - - - ENE 15 - 8 - - 1008.6 -
27/11:00pm 26.7 - - - - E 13 15 7 8 1008.5 - -
27/10:30pm 26.7 - - - - ENE 15 19 8 10 1008.6 - -
27/10:20pm 26.7 - - - - ENE 15 - 8 - - 1008.5 -
27/10:00pm 26.6 - - - - ENE 17 20 9 11 1008.1 - -
27/09:30pm 26.7 - - - - E 20 22 11 12 1007.6 - -
27/09:20pm 26.6 - - - - E 17 - 9 - - 1007.5 -

Other Formats:

Comma delimited format used in spreadsheet applications
http://www.bom.gov.au/fwo/IDQ60801/IDQ60801.94371.axf

JavaScript Object Notation format (JSON) in row-major order
http://www.bom.gov.au/fwo/IDQ60801/IDQ60801.94371.json